createdAt,value
2022-10-17T00:00:15.628Z,72.30
2022-10-17T00:02:42.241Z,72.55
2022-10-17T00:05:08.687Z,72.49
2022-10-17T00:07:35.094Z,72.12
2022-10-17T00:10:01.384Z,72.33
2022-10-17T00:12:27.784Z,72.31
2022-10-17T00:14:54.198Z,72.45
2022-10-17T00:17:20.594Z,72.32
2022-10-17T00:19:46.914Z,72.07
2022-10-17T00:22:13.332Z,72.33
2022-10-17T00:24:39.602Z,72.25
2022-10-17T00:27:05.942Z,71.94
2022-10-17T00:29:33.296Z,71.89
2022-10-17T00:31:59.788Z,71.96
2022-10-17T00:34:26.142Z,72.14
2022-10-17T00:36:52.448Z,72.38
2022-10-17T00:39:18.778Z,71.91
2022-10-17T00:41:45.247Z,72.46
2022-10-17T00:44:11.697Z,72.05
2022-10-17T00:46:38.111Z,72.16
2022-10-17T00:49:04.479Z,72.27
2022-10-17T00:51:30.833Z,72.06
2022-10-17T00:53:57.253Z,72.03
2022-10-17T00:56:23.562Z,72.29
2022-10-17T00:58:49.911Z,72.14
2022-10-17T01:01:16.516Z,71.89
2022-10-17T01:03:43.038Z,71.87
2022-10-17T01:06:11.624Z,71.95
2022-10-17T01:08:37.893Z,72.29
2022-10-17T01:11:04.184Z,71.90
2022-10-17T01:13:30.593Z,72.31
2022-10-17T01:15:56.959Z,72.04
2022-10-17T01:18:23.797Z,72.14
2022-10-17T01:20:51.026Z,72.03
2022-10-17T01:23:17.623Z,72.21
2022-10-17T01:25:44.231Z,71.84
2022-10-17T01:28:10.532Z,71.89
2022-10-17T01:30:36.896Z,72.07
2022-10-17T01:33:03.419Z,72.30
2022-10-17T01:35:29.908Z,72.05
2022-10-17T01:37:56.309Z,72.00
2022-10-17T01:40:22.665Z,72.00
2022-10-17T01:42:48.956Z,71.93
2022-10-17T01:45:15.716Z,71.90
2022-10-17T01:47:42.735Z,72.17
2022-10-17T01:50:09.102Z,71.90
2022-10-17T01:52:35.347Z,72.17
2022-10-17T01:55:01.639Z,72.10
2022-10-17T01:57:28.234Z,71.96
2022-10-17T01:59:54.658Z,71.97
2022-10-17T02:02:21.076Z,71.97
2022-10-17T02:07:14.144Z,72.01
2022-10-17T02:09:40.490Z,72.19
2022-10-17T02:12:06.831Z,72.21
2022-10-17T02:14:33.498Z,71.79
2022-10-17T02:16:59.886Z,71.94
2022-10-17T02:19:26.314Z,71.92
2022-10-17T02:21:52.648Z,71.79
2022-10-17T02:24:19.223Z,71.87
2022-10-17T02:26:45.510Z,71.95
2022-10-17T02:29:11.919Z,72.30
2022-10-17T02:31:38.318Z,72.26
2022-10-17T02:34:04.755Z,71.92
2022-10-17T02:36:31.087Z,71.74
2022-10-17T02:38:57.602Z,71.91
2022-10-17T02:41:23.969Z,72.17
2022-10-17T02:43:50.448Z,72.15
2022-10-17T02:46:16.924Z,72.01
2022-10-17T02:48:43.298Z,71.74
2022-10-17T02:51:09.562Z,72.25
2022-10-17T02:53:35.914Z,72.05
2022-10-17T02:56:02.409Z,71.65
2022-10-17T02:58:28.854Z,71.81
2022-10-17T03:00:55.331Z,71.79
2022-10-17T03:03:21.753Z,72.07
2022-10-17T03:05:48.080Z,71.86
2022-10-17T03:08:14.518Z,71.98
2022-10-17T03:10:40.842Z,71.78
2022-10-17T03:13:07.357Z,71.78
2022-10-17T03:15:33.761Z,71.81
2022-10-17T03:18:00.118Z,71.71
2022-10-17T03:20:26.791Z,72.00
2022-10-17T03:25:19.786Z,71.78
2022-10-17T03:27:46.127Z,71.51
2022-10-17T03:30:12.527Z,72.06
2022-10-17T03:32:39.308Z,71.68
2022-10-17T03:35:05.819Z,72.02
2022-10-17T03:37:32.281Z,71.89
2022-10-17T03:39:59.147Z,71.89
2022-10-17T03:42:25.484Z,71.93
2022-10-17T03:44:51.806Z,71.72
2022-10-17T03:47:18.219Z,71.96
2022-10-17T03:49:44.542Z,72.16
2022-10-17T03:52:11.028Z,72.00
2022-10-17T03:54:37.341Z,71.96
2022-10-17T03:57:04.499Z,72.00
2022-10-17T03:59:30.846Z,71.79
2022-10-17T04:01:57.167Z,71.81
2022-10-17T04:04:23.462Z,71.68
2022-10-17T04:06:49.793Z,71.74
2022-10-17T04:09:16.147Z,71.86
2022-10-17T04:11:42.564Z,71.96
2022-10-17T04:14:09.091Z,71.62
2022-10-17T04:16:35.503Z,72.04
2022-10-17T04:19:01.861Z,71.89
2022-10-17T04:21:29.874Z,71.85
2022-10-17T04:23:56.714Z,71.67
2022-10-17T04:26:23.190Z,71.89
2022-10-17T04:28:49.613Z,71.83
2022-10-17T04:31:15.926Z,71.86
2022-10-17T04:33:43.931Z,71.78
2022-10-17T04:36:10.246Z,71.58
2022-10-17T04:38:37.098Z,71.58
2022-10-17T04:41:03.548Z,71.56
2022-10-17T04:43:30.000Z,71.52
2022-10-17T04:45:56.460Z,71.48
2022-10-17T04:48:22.852Z,71.84
2022-10-17T04:50:49.352Z,71.73
2022-10-17T04:53:15.688Z,71.79
2022-10-17T04:55:41.963Z,71.57
2022-10-17T04:58:08.318Z,71.54
2022-10-17T05:00:34.856Z,71.76
2022-10-17T05:03:02.308Z,71.66
2022-10-17T05:05:28.650Z,71.65
2022-10-17T05:07:55.133Z,72.01
2022-10-17T05:10:21.445Z,71.48
2022-10-17T05:12:47.714Z,71.73
2022-10-17T05:15:14.276Z,71.68
2022-10-17T05:17:40.614Z,71.53
2022-10-17T05:20:06.953Z,71.65
2022-10-17T05:22:36.039Z,71.47
2022-10-17T05:25:03.548Z,71.61
2022-10-17T05:27:29.826Z,71.82
2022-10-17T05:29:56.062Z,71.56
2022-10-17T05:32:22.350Z,71.65
2022-10-17T05:34:48.779Z,71.49
2022-10-17T05:37:15.129Z,71.72
2022-10-17T05:39:41.534Z,71.85
2022-10-17T05:42:07.923Z,71.85
2022-10-17T05:44:34.235Z,71.89
2022-10-17T05:47:00.574Z,71.81
2022-10-17T05:49:33.289Z,71.36
2022-10-17T05:52:10.228Z,71.50
2022-10-17T05:54:36.644Z,71.84
2022-10-17T05:57:03.190Z,71.50
2022-10-17T05:59:29.713Z,71.53
2022-10-17T06:01:56.676Z,71.75
2022-10-17T06:04:23.121Z,71.55
2022-10-17T06:06:49.489Z,71.86
2022-10-17T06:09:15.823Z,71.93
2022-10-17T06:11:42.092Z,71.61
2022-10-17T06:14:08.521Z,72.09
2022-10-17T06:16:35.226Z,71.64
2022-10-17T06:19:01.744Z,71.74
2022-10-17T06:21:28.108Z,71.65
2022-10-17T06:23:54.486Z,72.22
2022-10-17T06:26:20.901Z,72.11
2022-10-17T06:28:47.587Z,72.08
2022-10-17T06:31:14.037Z,71.73
2022-10-17T06:33:40.788Z,71.65
2022-10-17T06:36:07.211Z,72.15
2022-10-17T06:38:34.934Z,71.78
2022-10-17T06:41:01.580Z,72.28
2022-10-17T06:43:32.306Z,71.81
2022-10-17T06:46:00.589Z,72.73
2022-10-17T06:48:26.957Z,72.78
2022-10-17T06:50:55.469Z,72.54
2022-10-17T06:53:23.084Z,72.25
2022-10-17T06:55:50.069Z,72.55
2022-10-17T06:58:16.432Z,72.01
2022-10-17T07:00:42.893Z,72.37
2022-10-17T07:03:09.471Z,72.33
2022-10-17T07:05:35.783Z,72.35
2022-10-17T07:08:02.405Z,73.01
2022-10-17T07:10:28.791Z,72.86
2022-10-17T07:12:55.243Z,72.67
2022-10-17T07:15:21.497Z,72.80
2022-10-17T07:17:47.872Z,72.39
2022-10-17T07:20:14.187Z,72.45
2022-10-17T07:22:40.574Z,72.45
2022-10-17T07:25:07.042Z,72.47
2022-10-17T07:27:33.357Z,72.34
2022-10-17T07:29:59.944Z,72.67
2022-10-17T07:32:26.639Z,72.72
2022-10-17T07:34:53.037Z,72.79
2022-10-17T07:37:19.444Z,72.80
2022-10-17T07:39:45.817Z,72.56
2022-10-17T07:42:12.204Z,72.80
2022-10-17T07:44:38.702Z,72.66
2022-10-17T07:47:05.270Z,72.72
2022-10-17T07:49:31.777Z,72.69
2022-10-17T07:51:58.239Z,72.49
2022-10-17T07:54:24.728Z,72.51
2022-10-17T07:56:51.113Z,72.54
2022-10-17T07:59:17.537Z,72.57
2022-10-17T08:01:43.889Z,72.62
2022-10-17T08:04:10.851Z,72.36
2022-10-17T08:06:37.215Z,72.85
2022-10-17T08:09:03.636Z,72.85
2022-10-17T08:11:29.973Z,72.53
2022-10-17T08:13:56.492Z,72.87
2022-10-17T08:16:22.868Z,72.66
2022-10-17T08:18:49.256Z,72.60
2022-10-17T08:21:15.612Z,72.65
2022-10-17T08:23:42.158Z,72.88
2022-10-17T08:26:08.528Z,72.55
2022-10-17T08:28:34.862Z,72.74
2022-10-17T08:31:01.305Z,72.91
2022-10-17T08:33:29.816Z,72.85
2022-10-17T08:35:56.271Z,72.70
2022-10-17T08:38:26.198Z,73.35
2022-10-17T08:40:53.953Z,72.81
2022-10-17T08:43:20.351Z,73.00
2022-10-17T08:45:46.725Z,72.94
2022-10-17T08:48:13.067Z,73.02
2022-10-17T08:50:42.642Z,73.08
2022-10-17T08:53:09.127Z,73.00
2022-10-17T08:55:36.958Z,72.68
2022-10-17T08:58:05.298Z,72.57
2022-10-17T09:00:31.593Z,73.12
2022-10-17T09:02:57.991Z,72.71
2022-10-17T09:05:26.521Z,72.58
2022-10-17T09:07:53.293Z,72.62
2022-10-17T09:10:19.932Z,72.75
2022-10-17T09:12:47.610Z,73.49
2022-10-17T09:15:13.969Z,73.63
2022-10-17T09:17:40.616Z,72.95
2022-10-17T09:20:07.015Z,73.39
2022-10-17T09:22:33.453Z,72.84
2022-10-17T09:25:01.094Z,72.65
2022-10-17T09:27:28.004Z,72.53
2022-10-17T09:29:54.558Z,72.94
2022-10-17T09:32:21.141Z,72.85
2022-10-17T09:34:47.978Z,72.45
2022-10-17T09:37:14.524Z,72.49
2022-10-17T09:39:40.947Z,72.38
2022-10-17T09:42:07.288Z,72.27
2022-10-17T09:44:33.703Z,72.74
2022-10-17T09:47:00.167Z,72.34
2022-10-17T09:49:26.668Z,72.38
2022-10-17T09:51:53.013Z,72.45
2022-10-17T09:54:19.434Z,72.46
2022-10-17T09:56:45.774Z,72.43
2022-10-17T10:01:57.662Z,72.35
2022-10-17T10:04:30.298Z,71.93
2022-10-17T10:06:57.040Z,71.70
2022-10-17T10:09:23.430Z,72.06
2022-10-17T10:11:50.101Z,71.85
2022-10-17T10:14:16.530Z,72.21
2022-10-17T10:16:42.903Z,71.86
2022-10-17T10:19:09.787Z,72.10
2022-10-17T10:21:37.405Z,72.31
2022-10-17T10:24:03.786Z,72.25
2022-10-17T10:26:30.203Z,71.93
2022-10-17T10:28:56.615Z,71.80
2022-10-17T10:31:23.153Z,72.18
2022-10-17T10:33:51.477Z,72.32
2022-10-17T10:36:19.626Z,71.98
2022-10-17T10:38:46.017Z,72.26
2022-10-17T10:41:12.649Z,72.50
2022-10-17T10:43:39.127Z,72.47
2022-10-17T10:46:05.553Z,72.46
2022-10-17T10:48:31.915Z,72.56
2022-10-17T10:50:58.318Z,72.42
2022-10-17T10:53:24.811Z,72.46
2022-10-17T10:55:51.271Z,72.50
2022-10-17T10:58:17.635Z,72.20
2022-10-17T11:00:44.138Z,72.65
2022-10-17T11:03:12.607Z,72.27
2022-10-17T11:05:39.349Z,72.30
2022-10-17T11:08:05.997Z,72.65
2022-10-17T11:10:32.345Z,72.33
2022-10-17T11:12:58.720Z,72.36
2022-10-17T11:15:25.062Z,72.41
2022-10-17T11:17:51.477Z,72.60
2022-10-17T11:20:18.035Z,72.41
2022-10-17T11:22:44.453Z,72.51
2022-10-17T11:25:10.846Z,72.37
2022-10-17T11:27:37.210Z,72.81
2022-10-17T11:30:03.619Z,72.62
2022-10-17T11:32:30.066Z,72.65
2022-10-17T11:34:56.714Z,72.79
2022-10-17T11:37:23.159Z,72.57
2022-10-17T11:39:49.558Z,72.62
2022-10-17T11:42:16.131Z,72.44
2022-10-17T11:44:42.461Z,72.95
2022-10-17T11:47:08.845Z,72.50
2022-10-17T11:49:38.229Z,72.65
2022-10-17T11:52:08.511Z,72.65
2022-10-17T11:54:34.898Z,72.71
2022-10-17T11:57:01.247Z,72.58
2022-10-17T11:59:27.926Z,72.61
2022-10-17T12:01:54.510Z,72.97
2022-10-17T12:04:21.162Z,72.80
2022-10-17T12:06:47.830Z,72.98
2022-10-17T12:09:14.352Z,72.63
2022-10-17T12:11:40.780Z,72.86
2022-10-17T12:14:07.599Z,72.77
2022-10-17T12:16:34.197Z,72.79
2022-10-17T12:19:00.596Z,72.79
2022-10-17T12:21:31.268Z,73.11
2022-10-17T12:23:58.546Z,73.07
2022-10-17T12:26:24.989Z,73.10
2022-10-17T12:28:51.533Z,73.14
2022-10-17T12:31:18.000Z,72.93
2022-10-17T12:33:44.515Z,72.93
2022-10-17T12:36:11.088Z,72.88
2022-10-17T12:38:37.449Z,72.89
2022-10-17T12:41:03.792Z,72.94
2022-10-17T12:43:30.229Z,72.97
2022-10-17T12:45:56.592Z,73.18
2022-10-17T12:48:22.918Z,73.27
2022-10-17T12:50:49.346Z,72.99
2022-10-17T12:53:18.478Z,73.06
2022-10-17T12:55:46.006Z,73.02
2022-10-17T12:58:12.449Z,73.28
2022-10-17T13:00:39.028Z,73.35
2022-10-17T13:03:05.425Z,73.33
2022-10-17T13:05:31.957Z,73.42
2022-10-17T13:07:58.367Z,73.44
2022-10-17T13:10:24.801Z,73.63
2022-10-17T13:12:51.293Z,73.55
2022-10-17T13:15:17.938Z,73.36
2022-10-17T13:17:44.325Z,73.41
2022-10-17T13:20:10.715Z,73.62
2022-10-17T13:22:37.102Z,73.31
2022-10-17T13:25:03.714Z,73.17
2022-10-17T13:27:30.069Z,73.37
2022-10-17T13:29:56.465Z,73.19
2022-10-17T13:32:22.851Z,73.45
2022-10-17T13:34:49.213Z,73.36
2022-10-17T13:37:15.791Z,73.58
2022-10-17T13:39:55.122Z,73.58
2022-10-17T13:42:22.319Z,73.55
2022-10-17T13:44:48.735Z,73.41
2022-10-17T13:47:15.229Z,73.69
2022-10-17T13:49:41.646Z,73.78
2022-10-17T13:52:08.039Z,73.44
2022-10-17T13:54:34.499Z,73.47
2022-10-17T13:57:01.149Z,73.80
2022-10-17T13:59:27.576Z,73.58
2022-10-17T14:01:54.010Z,73.37
2022-10-17T14:04:20.761Z,73.53
2022-10-17T14:06:49.470Z,73.86
2022-10-17T14:09:17.868Z,73.66
2022-10-17T14:11:44.407Z,73.58
2022-10-17T14:14:11.048Z,73.65
2022-10-17T14:16:37.486Z,73.51
2022-10-17T14:19:03.920Z,73.91
2022-10-17T14:21:44.221Z,73.90
2022-10-17T14:24:11.168Z,73.88
2022-10-17T14:26:37.628Z,73.63
2022-10-17T14:29:04.066Z,73.66
2022-10-17T14:31:30.518Z,73.97
2022-10-17T14:33:56.935Z,73.80
2022-10-17T14:36:23.323Z,73.67
2022-10-17T14:38:51.502Z,74.08
2022-10-17T14:41:44.799Z,74.03
2022-10-17T14:44:04.218Z,73.83
2022-10-17T14:46:30.668Z,73.87
2022-10-17T14:48:57.072Z,73.68
2022-10-17T14:51:23.556Z,74.11
2022-10-17T14:53:50.025Z,73.89
2022-10-17T14:56:16.491Z,73.92
2022-10-17T14:58:42.844Z,73.98
2022-10-17T15:01:09.328Z,73.80
2022-10-17T15:03:35.904Z,73.99
2022-10-17T15:06:02.664Z,74.22
2022-10-17T15:08:29.509Z,74.18
2022-10-17T15:10:55.927Z,74.30
2022-10-17T15:13:32.129Z,74.24
2022-10-17T15:16:01.407Z,74.00
2022-10-17T15:18:27.950Z,74.27
2022-10-17T15:21:04.588Z,74.19
2022-10-17T15:23:33.137Z,74.28
2022-10-17T15:25:59.796Z,74.10
2022-10-17T15:28:26.209Z,74.29
2022-10-17T15:30:52.523Z,74.34
2022-10-17T15:33:18.958Z,74.24
2022-10-17T15:35:45.338Z,73.94
2022-10-17T15:38:11.718Z,74.43
2022-10-17T15:40:38.120Z,74.24
2022-10-17T15:43:04.882Z,74.30
2022-10-17T15:45:31.316Z,74.01
2022-10-17T15:47:58.063Z,73.98
2022-10-17T15:50:24.462Z,73.86
2022-10-17T15:52:51.000Z,74.08
2022-10-17T15:55:17.683Z,73.84
2022-10-17T15:57:44.493Z,73.87
2022-10-17T16:00:15.460Z,73.80
2022-10-17T16:02:42.876Z,74.06
2022-10-17T16:05:09.525Z,73.85
2022-10-17T16:07:35.924Z,73.73
2022-10-17T16:10:02.306Z,73.71
2022-10-17T16:12:28.717Z,73.66
2022-10-17T16:14:55.156Z,73.73
2022-10-17T16:17:21.935Z,73.83
2022-10-17T16:19:48.756Z,73.88
2022-10-17T16:22:15.124Z,73.60
2022-10-17T16:24:41.596Z,73.56
2022-10-17T16:27:07.944Z,73.65
2022-10-17T16:29:34.326Z,73.88
2022-10-17T16:32:00.779Z,73.80
2022-10-17T16:34:27.903Z,73.57
2022-10-17T16:36:54.376Z,73.56
2022-10-17T16:39:20.771Z,73.52
2022-10-17T16:41:47.265Z,73.95
2022-10-17T16:44:13.724Z,73.50
2022-10-17T16:46:40.103Z,73.73
2022-10-17T16:49:06.430Z,73.70
2022-10-17T16:51:32.840Z,73.71
2022-10-17T16:53:59.222Z,73.71
2022-10-17T16:56:25.769Z,73.47
2022-10-17T16:58:52.242Z,73.52
2022-10-17T17:01:19.775Z,73.68
2022-10-17T17:03:46.162Z,73.72
2022-10-17T17:06:12.507Z,73.39
2022-10-17T17:08:39.006Z,73.41
2022-10-17T17:11:05.468Z,73.57
2022-10-17T17:13:31.760Z,73.44
2022-10-17T17:15:58.179Z,73.57
2022-10-17T17:18:24.555Z,73.20
2022-10-17T17:20:52.972Z,73.14
2022-10-17T17:23:19.990Z,73.57
2022-10-17T17:25:46.367Z,73.48
2022-10-17T17:28:12.973Z,73.61
2022-10-17T17:30:39.364Z,73.46
2022-10-17T17:33:05.720Z,73.26
2022-10-17T17:35:32.365Z,73.14
2022-10-17T17:37:58.732Z,73.28
2022-10-17T17:40:25.078Z,73.21
2022-10-17T17:42:51.694Z,73.26
2022-10-17T17:45:18.127Z,73.47
2022-10-17T17:47:44.483Z,73.20
2022-10-17T17:50:10.884Z,73.27
2022-10-17T17:52:37.233Z,73.38
2022-10-17T17:55:03.560Z,73.36
2022-10-17T17:57:29.951Z,73.12
2022-10-17T17:59:56.305Z,72.94
2022-10-17T18:02:22.684Z,73.15
2022-10-17T18:04:49.166Z,72.94
2022-10-17T18:07:15.804Z,73.37
2022-10-17T18:09:42.149Z,73.08
2022-10-17T18:12:08.578Z,73.33
2022-10-17T18:14:35.057Z,73.30
2022-10-17T18:17:01.459Z,73.30
2022-10-17T18:19:28.544Z,73.15
2022-10-17T18:21:55.202Z,72.96
2022-10-17T18:24:21.587Z,73.43
2022-10-17T18:26:48.135Z,73.00
2022-10-17T18:29:14.555Z,73.23
2022-10-17T18:31:40.968Z,72.97
2022-10-17T18:34:07.392Z,73.06
2022-10-17T18:36:33.780Z,73.16
2022-10-17T18:39:00.513Z,73.12
2022-10-17T18:41:27.100Z,73.28
2022-10-17T18:43:53.719Z,73.38
2022-10-17T18:46:20.087Z,73.01
2022-10-17T18:48:46.484Z,73.25
2022-10-17T18:51:12.821Z,73.25
2022-10-17T18:53:39.283Z,72.87
2022-10-17T18:56:05.899Z,73.20
2022-10-17T18:58:32.250Z,73.13
2022-10-17T19:00:58.653Z,73.29
2022-10-17T19:03:25.002Z,72.99
2022-10-17T19:05:51.375Z,73.22
2022-10-17T19:08:17.743Z,72.91
2022-10-17T19:10:44.066Z,73.26
2022-10-17T19:13:10.421Z,73.14
2022-10-17T19:15:36.796Z,72.78
2022-10-17T19:18:03.303Z,72.87
2022-10-17T19:20:29.664Z,72.90
2022-10-17T19:22:56.009Z,72.89
2022-10-17T19:25:22.378Z,73.15
2022-10-17T19:27:48.859Z,72.77
2022-10-17T19:30:15.288Z,72.91
2022-10-17T19:32:42.150Z,72.86
2022-10-17T19:35:08.535Z,72.89
2022-10-17T19:37:34.971Z,73.19
2022-10-17T19:40:01.437Z,73.25
2022-10-17T19:42:28.407Z,72.87
2022-10-17T19:44:55.312Z,72.90
2022-10-17T19:47:21.649Z,73.14
2022-10-17T19:49:50.145Z,73.07
2022-10-17T19:52:16.694Z,73.02
2022-10-17T19:54:43.165Z,73.12
2022-10-17T19:57:10.609Z,72.83
2022-10-17T19:59:37.189Z,72.75
2022-10-17T20:02:03.680Z,73.23
2022-10-17T20:04:31.566Z,73.08
2022-10-17T20:06:58.099Z,73.06
2022-10-17T20:09:24.531Z,73.07
2022-10-17T20:11:50.899Z,73.11
2022-10-17T20:14:17.328Z,73.04
2022-10-17T20:16:43.765Z,73.22
2022-10-17T20:19:10.299Z,72.71
2022-10-17T20:21:36.627Z,73.12
2022-10-17T20:24:03.386Z,72.98
2022-10-17T20:26:38.564Z,72.99
2022-10-17T20:29:06.513Z,72.96
2022-10-17T20:31:32.911Z,73.15
2022-10-17T20:33:59.315Z,73.01
2022-10-17T20:36:25.640Z,73.01
2022-10-17T20:38:52.000Z,73.05
2022-10-17T20:41:18.372Z,72.89
2022-10-17T20:43:44.852Z,72.79
2022-10-17T20:46:23.535Z,72.67
2022-10-17T20:48:56.056Z,72.83
2022-10-17T20:51:22.408Z,72.80
2022-10-17T20:53:48.844Z,72.92
2022-10-17T20:56:15.287Z,73.04
2022-10-17T20:58:41.699Z,72.95
2022-10-17T21:01:08.105Z,72.66
2022-10-17T21:03:34.444Z,73.02
2022-10-17T21:06:00.956Z,73.08
2022-10-17T21:08:27.504Z,72.78
2022-10-17T21:10:53.869Z,72.92
2022-10-17T21:13:20.222Z,72.56
2022-10-17T21:15:46.659Z,73.02
2022-10-17T21:18:12.967Z,72.99
2022-10-17T21:20:39.313Z,72.77
2022-10-17T21:23:05.658Z,72.96
2022-10-17T21:25:32.139Z,72.98
2022-10-17T21:27:58.631Z,72.98
2022-10-17T21:30:25.119Z,72.87
2022-10-17T21:32:52.118Z,72.82
2022-10-17T21:35:18.690Z,72.82
2022-10-17T21:37:45.076Z,72.68
2022-10-17T21:40:11.447Z,72.81
2022-10-17T21:42:37.947Z,72.67
2022-10-17T21:45:10.603Z,72.71
2022-10-17T21:47:54.966Z,72.88
2022-10-17T21:50:30.572Z,72.80
2022-10-17T21:52:57.165Z,72.90
2022-10-17T21:55:23.528Z,72.67
2022-10-17T21:57:49.857Z,72.92
2022-10-17T22:00:16.355Z,72.85
2022-10-17T22:02:42.739Z,72.71
2022-10-17T22:05:10.592Z,72.74
2022-10-17T22:07:37.138Z,72.95
2022-10-17T22:10:03.582Z,73.10
2022-10-17T22:12:30.381Z,72.63
2022-10-17T22:14:56.943Z,72.97
2022-10-17T22:17:23.494Z,72.63
2022-10-17T22:19:49.833Z,72.89
2022-10-17T22:22:16.278Z,72.95
2022-10-17T22:24:42.902Z,72.99
2022-10-17T22:27:09.265Z,72.89
2022-10-17T22:29:35.757Z,73.15
2022-10-17T22:32:02.254Z,72.68
2022-10-17T22:34:28.615Z,72.82
2022-10-17T22:36:55.001Z,72.69
2022-10-17T22:39:21.492Z,72.91
2022-10-17T22:41:47.853Z,73.10
2022-10-17T22:44:14.277Z,72.78
2022-10-17T22:46:40.664Z,72.94
2022-10-17T22:49:07.269Z,72.80
2022-10-17T22:51:33.757Z,72.84
2022-10-17T22:54:00.144Z,72.67
2022-10-17T22:56:26.607Z,72.89
2022-10-17T22:58:52.975Z,72.85
2022-10-17T23:01:19.440Z,72.96
2022-10-17T23:03:45.931Z,72.58
2022-10-17T23:06:12.297Z,72.95
2022-10-17T23:08:38.663Z,72.91
2022-10-17T23:11:05.020Z,72.59
2022-10-17T23:13:31.388Z,72.64
2022-10-17T23:15:58.176Z,72.71
2022-10-17T23:18:24.587Z,72.60
2022-10-17T23:20:51.058Z,72.85
2022-10-17T23:23:17.427Z,72.53
2022-10-17T23:25:43.992Z,72.56
2022-10-17T23:28:10.318Z,72.65
2022-10-17T23:30:37.912Z,72.63
2022-10-17T23:33:04.360Z,72.72
2022-10-17T23:35:30.715Z,72.59
2022-10-17T23:37:57.183Z,72.86
2022-10-17T23:40:23.691Z,72.65
2022-10-17T23:42:49.971Z,72.46
2022-10-17T23:45:16.436Z,72.48
2022-10-17T23:47:43.004Z,72.37
2022-10-17T23:50:09.381Z,72.72
2022-10-17T23:52:35.820Z,72.47
2022-10-17T23:55:02.147Z,72.42
2022-10-17T23:57:28.891Z,72.65
2022-10-17T23:59:55.649Z,72.68
